Flight Track Log - Related Links

Times and Time Zones

All times are in EDT time to prevent confusion due to time zone crossing. See the GGN7257 flight status page for this flight to view local times or setup timezone preferences in your user account.

Time Position Orientation Groundspeed Altitude Reporting Facility
EDT Latitude Longitude Course Direction KTS MPH feet Rate Location/Type
Wed 05:47:46 AM 44.2333 -76.6667 270° West 200 230 2,400  Level Montreal Center
Wed 05:48:46 AM 44.2333 -76.7333 270° West 200 230 3,900 1,600 Climbing Montreal Center
Wed 05:49:46 AM 44.2167 -76.8167 267° West 200 230 5,600 1,714 Climbing Montreal Center
Wed 05:50:31 AM 44.2167 -76.8333 270° West 190 219 6,900 1,543 Climbing Toronto Center
Wed 05:51:31 AM 44.2167 -76.9167 270° West 180 207 8,300 1,550 Climbing Toronto Center
Wed 05:52:31 AM 44.2167 -76.9833 270° West 180 207 10,000 1,850 Climbing Toronto Center
Wed 05:53:31 AM 44.2167 -77.0500 270° West 160 184 12,000 1,750 Climbing Toronto Center
Wed 05:54:31 AM 44.2000 -77.1000 245° Southwest 140 161 13,500 1,450 Climbing Toronto Center
Wed 05:55:31 AM 44.2000 -77.1500 270° West 140 161 14,900 1,200 Climbing Toronto Center
Wed 05:56:31 AM 44.2000 -77.2167 270° West 150 173 15,900 600 Climbing Toronto Center
Wed 05:57:31 AM 44.2000 -77.2833 270° West 170 196 16,100 100 Climbing Toronto Center
Wed 05:58:31 AM 44.1833 -77.3500 251° West 190 219 16,100  Level Toronto Center
Wed 05:59:31 AM 44.2000 -77.4167 289° West 190 219 16,100 -50 Level Toronto Center
Wed 06:00:31 AM 44.2000 -77.5000 270° West 190 219 16,000 -50 Descending Toronto Center
Wed 06:01:31 AM 44.2000 -77.5667 270° West 190 219 16,000  Level Toronto Center
Wed 06:02:31 AM 44.1833 -77.6333 251° West 180 207 16,000  Level Toronto Center
Wed 06:03:31 AM 44.1667 -77.7000 251° West 170 196 16,000  Level Toronto Center
Wed 06:04:31 AM 44.1667 -77.7667 270° West 170 196 16,000  Level Toronto Center
Wed 06:05:31 AM 44.1500 -77.8167 245° Southwest 170 196 16,000  Level Toronto Center
Wed 06:06:31 AM 44.1500 -77.8833 270° West 170 196 16,000  Level Toronto Center
Wed 06:07:31 AM 44.1333 -77.9667 254° West 170 196 16,000  Level Toronto Center
Wed 06:08:31 AM 44.1333 -78.0333 270° West 170 196 16,000  Level Toronto Center
Wed 06:09:31 AM 44.1167 -78.1000 251° West 170 196 16,000  Level Toronto Center
Wed 06:10:31 AM 44.1167 -78.1500 270° West 170 196 16,000 -250 Level Toronto Center
Wed 06:11:31 AM 44.1000 -78.2167 251° West 170 196 15,500 -800 Descending Toronto Center
Wed 06:12:31 AM 44.0833 -78.2833 251° West 180 207 14,400 -1,050 Descending Toronto Center
Wed 06:13:31 AM 44.0833 -78.3500 270° West 180 207 13,400 -1,050 Descending Toronto Center
Wed 06:14:31 AM 44.0667 -78.4333 254° West 170 196 12,300 -1,150 Descending Toronto Center
Wed 06:15:31 AM 44.0833 -78.5000 289° West 170 196 11,100 -1,250 Descending Toronto Center
Wed 06:16:31 AM 44.0667 -78.5500 245° Southwest 170 196 9,800 -1,100 Descending Toronto Center
Wed 06:17:31 AM 44.0500 -78.6167 251° West 190 219 8,900 -450 Descending Toronto Center
Wed 06:18:31 AM 44.0500 -78.6833 270° West 190 219 8,900  Level Toronto Center
Wed 06:19:31 AM 44.0333 -78.7667 254° West 190 219 8,900 50 Level Toronto Center
Wed 06:20:31 AM 44.0000 -78.8167 227° Southwest 200 230 9,000 50 Climbing Toronto Center
Wed 06:21:31 AM 43.9667 -78.8833 235° Southwest 200 230 9,000 -50 Level Toronto Center
Wed 06:22:31 AM 43.9167 -78.9333 216° Southwest 200 230 8,900  Descending Toronto Center
Wed 06:23:31 AM 43.8833 -79.0000 235° Southwest 200 230 9,000 50 Climbing Toronto Center
Wed 06:24:31 AM 43.8667 -79.0833 255° West 200 230 9,000 -50 Level Toronto Center
Wed 06:25:31 AM 43.8333 -79.1500 235° Southwest 200 230 8,900 -50 Descending Toronto Center
Wed 06:26:31 AM 43.8167 -79.2167 251° West 200 230 8,900 -250 Level Toronto Center
Wed 06:27:31 AM 43.8000 -79.2833 251° West 200 230 8,400 -500 Descending Toronto Center
Wed 06:28:31 AM 43.7833 -79.3500 251° West 210 242 7,900 -250 Descending Toronto Center
Wed 06:29:31 AM 43.7667 -79.4500 257° West 210 242 7,900  Level Toronto Center
Wed 06:30:31 AM 43.7667 -79.5167 270° West 210 242 7,900  Level Toronto Center
Wed 06:31:31 AM 43.7500 -79.6167 257° West 210 242 7,900 -350 Level Toronto Center
Wed 06:32:31 AM 43.7333 -79.6833 251° West 220 253 7,200 -1,000 Descending Toronto Center
Wed 06:33:31 AM 43.7000 -79.7500 235° Southwest 220 253 5,900 -1,450 Descending Toronto Center
Wed 06:34:31 AM 43.6667 -79.8167 235° Southwest 220 253 4,300 -1,450 Descending Toronto Center
Wed 06:35:31 AM 43.6167 -79.8667 216° Southwest 220 253 3,000 -700 Descending Toronto Center
Wed 06:36:31 AM 43.5667 -79.8333 154° Southeast 180 207 2,900  Descending Toronto Center
Wed 06:37:31 AM 43.5833 -79.7667 71° East 170 196 3,000 -350 Climbing Toronto Center
Wed 06:38:31 AM 43.6167 -79.7333 36° Northeast 170 196 2,200 -800 Descending Toronto Center
Wed 06:39:31 AM 43.6333 -79.6833 65° Northeast 140 161 1,400 -750 Descending Toronto Center
Wed 06:40:31 AM 43.6667 -79.6500 36° Northeast 130 150 700 -700 Descending Toronto Center

Login

Don't have an account? Register now (free) for customized features, flight alerts, and more!